createdAt,value
2022-08-22T00:00:17.836Z,3.90
2022-08-22T00:02:45.887Z,3.36
2022-08-22T00:02:53.534Z,3.39
2022-08-22T00:03:04.492Z,5.16
2022-08-22T00:03:09.768Z,4.48
2022-08-22T00:06:00.908Z,3.95
2022-08-22T00:08:41.056Z,3.50
2022-08-22T00:11:26.111Z,3.59
2022-08-22T00:14:01.753Z,3.57
2022-08-22T00:16:45.639Z,3.82
2022-08-22T00:19:52.847Z,3.63
2022-08-22T00:22:25.619Z,3.76
2022-08-22T00:25:07.538Z,3.94
2022-08-22T00:28:04.896Z,3.88
2022-08-22T00:30:42.952Z,3.93
2022-08-22T00:33:25.805Z,3.92
2022-08-22T00:36:15.144Z,4.10
2022-08-22T00:38:57.709Z,4.03
2022-08-22T00:41:44.421Z,3.99
2022-08-22T00:44:51.923Z,3.86
2022-08-22T00:47:45.982Z,3.78
2022-08-22T00:50:51.590Z,3.86
2022-08-22T00:53:25.263Z,4.14
2022-08-22T00:56:24.946Z,3.95
2022-08-22T00:59:23.683Z,3.81
2022-08-22T01:01:57.217Z,3.95
2022-08-22T01:05:07.708Z,4.33
2022-08-22T01:08:13.856Z,4.25
2022-08-22T01:10:51.480Z,4.21
2022-08-22T01:13:36.643Z,4.01
2022-08-22T01:16:24.634Z,4.61
2022-08-22T01:19:44.646Z,4.58
2022-08-22T01:22:34.595Z,4.13
2022-08-22T01:25:22.493Z,4.38
2022-08-22T01:28:22.845Z,4.19
2022-08-22T01:31:28.692Z,4.10
2022-08-22T01:34:24.967Z,4.17
2022-08-22T01:37:29.700Z,4.02
2022-08-22T01:40:24.826Z,4.16
2022-08-22T01:43:51.312Z,4.17
2022-08-22T01:46:23.330Z,4.21
2022-08-22T01:49:09.424Z,3.89
2022-08-22T01:51:37.277Z,4.19
2022-08-22T01:54:34.438Z,3.81
2022-08-22T01:57:07.999Z,3.94
2022-08-22T01:59:59.319Z,4.01
2022-08-22T02:02:26.884Z,3.54
2022-08-22T02:05:26.769Z,3.70
2022-08-22T02:07:58.856Z,3.70
2022-08-22T02:11:04.399Z,3.86
2022-08-22T02:13:48.912Z,3.74
2022-08-22T02:16:31.660Z,3.80
2022-08-22T02:19:15.029Z,3.68
2022-08-22T02:22:22.618Z,3.62
2022-08-22T02:25:12.967Z,3.71
2022-08-22T02:28:13.638Z,3.91
2022-08-22T02:31:06.157Z,3.77
2022-08-22T02:33:53.839Z,3.49
2022-08-22T02:36:44.940Z,3.66
2022-08-22T02:39:18.571Z,3.77
2022-08-22T02:41:53.320Z,3.96
2022-08-22T02:44:27.260Z,3.75
2022-08-22T02:47:15.394Z,3.59
2022-08-22T02:50:21.958Z,3.50
2022-08-22T02:53:13.203Z,3.80
2022-08-22T02:56:13.534Z,3.40
2022-08-22T02:59:05.020Z,3.73
2022-08-22T03:01:41.102Z,3.82
2022-08-22T03:04:45.682Z,3.65
2022-08-22T03:07:19.883Z,3.67
2022-08-22T03:10:14.594Z,4.06
2022-08-22T03:13:08.382Z,3.76
2022-08-22T03:16:04.592Z,4.27
2022-08-22T03:18:43.849Z,4.19
2022-08-22T03:21:32.162Z,4.05
2022-08-22T03:24:49.447Z,4.18
2022-08-22T03:27:32.713Z,4.35
2022-08-22T03:30:20.125Z,4.48
2022-08-22T03:33:18.268Z,4.52
2022-08-22T03:35:46.039Z,4.59
2022-08-22T03:38:33.254Z,5.03
2022-08-22T03:41:31.693Z,4.89
2022-08-22T03:44:19.598Z,4.87
2022-08-22T03:47:08.438Z,4.90
2022-08-22T03:49:58.921Z,4.85
2022-08-22T03:53:19.478Z,4.67
2022-08-22T03:56:05.644Z,4.71
2022-08-22T03:59:01.030Z,4.86
2022-08-22T04:01:42.812Z,4.61
2022-08-22T04:04:43.242Z,4.70
2022-08-22T04:07:35.683Z,4.73
2022-08-22T04:10:17.053Z,4.71
2022-08-22T04:13:27.466Z,4.94
2022-08-22T04:16:36.044Z,5.15
2022-08-22T04:19:25.245Z,5.07
2022-08-22T04:22:31.569Z,4.82
2022-08-22T04:25:25.710Z,4.99
2022-08-22T04:28:05.165Z,4.80
2022-08-22T04:30:43.043Z,4.43
2022-08-22T04:33:23.031Z,4.97
2022-08-22T04:36:01.457Z,5.05
2022-08-22T04:38:47.825Z,5.04
2022-08-22T04:42:34.870Z,4.98
2022-08-22T04:45:35.156Z,5.02
2022-08-22T04:48:27.654Z,5.20
2022-08-22T04:51:27.476Z,5.48
2022-08-22T04:54:14.218Z,5.06
2022-08-22T04:57:03.079Z,5.69
2022-08-22T04:59:34.185Z,5.02
2022-08-22T05:02:07.166Z,5.52
2022-08-22T05:04:49.949Z,5.60
2022-08-22T05:07:24.812Z,5.52
2022-08-22T05:09:59.802Z,5.58
2022-08-22T05:12:48.289Z,5.49
2022-08-22T05:15:28.756Z,5.42
2022-08-22T05:18:02.790Z,5.76
2022-08-22T05:20:31.705Z,5.58
2022-08-22T05:23:16.959Z,6.20
2022-08-22T05:25:53.231Z,6.06
2022-08-22T05:28:31.414Z,5.75
2022-08-22T05:31:01.264Z,5.85
2022-08-22T05:33:36.087Z,5.74
2022-08-22T05:36:18.135Z,5.59
2022-08-22T05:39:06.076Z,5.53
2022-08-22T05:41:37.494Z,5.57
2022-08-22T05:44:17.454Z,6.06
2022-08-22T05:47:00.108Z,5.41
2022-08-22T05:49:39.858Z,5.43
2022-08-22T05:52:30.029Z,5.09
2022-08-22T05:55:15.612Z,5.41
2022-08-22T05:57:52.585Z,5.04
2022-08-22T06:00:25.982Z,5.08
2022-08-22T06:03:17.586Z,8.00
2022-08-22T06:05:51.975Z,6.82
2022-08-22T06:08:34.751Z,4.77
2022-08-22T06:11:16.273Z,4.50
2022-08-22T06:14:42.794Z,4.53
2022-08-22T06:17:20.743Z,4.80
2022-08-22T06:19:53.158Z,4.64
2022-08-22T06:22:34.494Z,4.10
2022-08-22T06:25:17.172Z,3.99
2022-08-22T06:27:49.325Z,4.16
2022-08-22T06:30:19.451Z,4.23
2022-08-22T06:33:00.210Z,4.49
2022-08-22T06:36:05.834Z,4.02
2022-08-22T06:38:56.373Z,4.04
2022-08-22T06:41:30.752Z,4.19
2022-08-22T06:44:02.688Z,5.59
2022-08-22T06:46:35.892Z,5.10
2022-08-22T06:49:07.456Z,4.67
2022-08-22T06:51:39.025Z,4.52
2022-08-22T06:54:17.630Z,5.04
2022-08-22T06:56:51.108Z,4.77
2022-08-22T06:59:27.722Z,4.92
2022-08-22T07:02:38.887Z,5.25
2022-08-22T07:05:15.298Z,5.45
2022-08-22T07:07:43.730Z,5.44
2022-08-22T07:10:18.815Z,5.42
2022-08-22T07:12:52.802Z,7.63
2022-08-22T07:15:37.192Z,7.24
2022-08-22T07:18:16.295Z,5.85
2022-08-22T07:20:55.261Z,6.14
2022-08-22T07:23:41.399Z,6.10
2022-08-22T07:27:06.836Z,6.43
2022-08-22T07:30:10.168Z,6.39
2022-08-22T07:33:25.928Z,6.58
2022-08-22T07:36:01.887Z,6.58
2022-08-22T07:38:43.740Z,6.17
2022-08-22T07:41:24.267Z,6.14
2022-08-22T07:44:03.855Z,6.48
2022-08-22T07:47:02.173Z,6.45
2022-08-22T07:49:54.853Z,6.17
2022-08-22T07:52:25.295Z,6.50
2022-08-22T07:55:14.945Z,6.19
2022-08-22T07:57:53.130Z,6.49
2022-08-22T08:00:23.602Z,6.18
2022-08-22T08:02:58.913Z,6.56
2022-08-22T08:05:31.476Z,6.47
2022-08-22T08:08:02.748Z,6.01
2022-08-22T08:10:35.745Z,6.69
2022-08-22T08:13:15.160Z,6.30
2022-08-22T08:15:45.910Z,6.17
2022-08-22T08:18:22.116Z,7.46
2022-08-22T08:20:58.151Z,8.16
2022-08-22T08:23:39.593Z,6.60
2022-08-22T08:26:35.581Z,6.52
2022-08-22T08:29:06.090Z,5.97
2022-08-22T08:31:44.937Z,6.11
2022-08-22T08:34:21.654Z,6.06
2022-08-22T08:37:04.822Z,6.25
2022-08-22T08:39:53.531Z,6.22
2022-08-22T08:42:59.799Z,6.48
2022-08-22T08:45:59.079Z,6.34
2022-08-22T08:48:59.889Z,7.14
2022-08-22T08:52:08.151Z,6.15
2022-08-22T08:54:48.973Z,6.04
2022-08-22T08:58:06.650Z,6.02
2022-08-22T09:00:59.397Z,5.74
2022-08-22T09:03:52.828Z,6.07
2022-08-22T09:06:42.565Z,5.97
2022-08-22T09:09:39.150Z,5.88
2022-08-22T09:12:16.646Z,6.21
2022-08-22T09:15:20.496Z,6.18
2022-08-22T09:18:33.317Z,5.82
2022-08-22T09:21:43.697Z,5.66
2022-08-22T09:24:38.677Z,5.12
2022-08-22T09:27:24.479Z,5.82
2022-08-22T09:30:18.229Z,5.12
2022-08-22T09:33:04.414Z,5.03
2022-08-22T09:36:05.268Z,5.30
2022-08-22T09:38:38.638Z,4.98
2022-08-22T09:41:24.529Z,5.10
2022-08-22T09:44:30.725Z,5.35
2022-08-22T09:47:24.691Z,5.21
2022-08-22T09:50:14.447Z,4.85
2022-08-22T09:53:08.932Z,4.48
2022-08-22T09:56:00.709Z,4.84
2022-08-22T09:59:01.435Z,4.89
2022-08-22T10:01:49.232Z,4.88
2022-08-22T10:04:55.428Z,5.18
2022-08-22T10:07:57.070Z,5.12
2022-08-22T10:10:34.307Z,4.35
2022-08-22T10:13:22.065Z,4.72
2022-08-22T10:16:11.877Z,4.43
2022-08-22T10:18:53.756Z,4.47
2022-08-22T10:22:05.076Z,4.24
2022-08-22T10:24:49.402Z,4.39
2022-08-22T10:27:44.944Z,4.45
2022-08-22T10:30:31.074Z,4.31
2022-08-22T10:33:32.648Z,4.74
2022-08-22T10:36:32.105Z,4.52
2022-08-22T10:39:09.475Z,4.50
2022-08-22T10:42:19.350Z,4.13
2022-08-22T10:45:14.957Z,5.66
2022-08-22T10:48:23.278Z,6.25
2022-08-22T10:51:24.810Z,4.43
2022-08-22T10:54:28.577Z,4.11
2022-08-22T10:57:20.545Z,4.19
2022-08-22T11:00:17.433Z,4.37
2022-08-22T11:03:01.254Z,3.83
2022-08-22T11:05:50.014Z,4.14
2022-08-22T11:09:00.308Z,3.14
2022-08-22T11:11:39.646Z,2.90
2022-08-22T11:14:36.295Z,3.20
2022-08-22T11:17:30.273Z,3.26
2022-08-22T11:20:10.339Z,3.27
2022-08-22T11:22:59.154Z,3.25
2022-08-22T11:25:54.012Z,3.24
2022-08-22T11:29:13.612Z,2.96
2022-08-22T11:32:07.726Z,3.65
2022-08-22T11:34:57.420Z,3.34
2022-08-22T11:37:56.381Z,3.36
2022-08-22T11:40:45.822Z,3.33
2022-08-22T11:43:26.642Z,4.31
2022-08-22T11:46:01.711Z,4.37
2022-08-22T11:49:15.944Z,3.94
2022-08-22T11:52:12.312Z,3.44
2022-08-22T11:55:09.291Z,3.23
2022-08-22T11:57:44.962Z,3.38
2022-08-22T12:00:15.004Z,3.57
2022-08-22T12:02:47.600Z,3.51
2022-08-22T12:05:31.371Z,3.14
2022-08-22T12:08:51.569Z,3.33
2022-08-22T12:11:30.072Z,3.50
2022-08-22T12:14:27.041Z,3.56
2022-08-22T12:17:55.687Z,3.23
2022-08-22T12:20:21.815Z,4.44
2022-08-22T12:23:09.545Z,4.23
2022-08-22T12:26:05.162Z,3.70
2022-08-22T12:29:18.043Z,3.55
2022-08-22T12:31:59.740Z,3.58
2022-08-22T12:35:14.535Z,3.49
2022-08-22T12:38:01.307Z,3.80
2022-08-22T12:40:48.697Z,3.85
2022-08-22T12:43:52.168Z,3.38
2022-08-22T12:46:38.665Z,3.19
2022-08-22T12:49:54.839Z,3.57
2022-08-22T12:52:48.777Z,3.85
2022-08-22T12:55:32.184Z,3.51
2022-08-22T12:58:29.478Z,3.40
2022-08-22T13:01:09.056Z,3.08
2022-08-22T13:03:56.284Z,3.38
2022-08-22T13:06:36.752Z,3.30
2022-08-22T13:09:28.940Z,3.07
2022-08-22T13:12:35.920Z,2.92
2022-08-22T13:15:29.149Z,3.11
2022-08-22T13:18:19.002Z,3.32
2022-08-22T13:20:55.548Z,3.20
2022-08-22T13:23:34.354Z,3.35
2022-08-22T13:26:31.846Z,3.47
2022-08-22T13:29:25.703Z,3.42
2022-08-22T13:32:02.203Z,3.20
2022-08-22T13:34:43.737Z,3.42
2022-08-22T13:37:24.495Z,3.53
2022-08-22T13:40:00.385Z,3.21
2022-08-22T13:42:33.960Z,3.10
2022-08-22T13:45:22.255Z,3.44
2022-08-22T13:48:03.730Z,3.13
2022-08-22T13:50:55.138Z,3.14
2022-08-22T13:53:50.075Z,3.25
2022-08-22T13:57:03.013Z,3.11
2022-08-22T13:59:59.465Z,2.98
2022-08-22T14:02:53.932Z,3.43
2022-08-22T14:05:31.634Z,3.28
2022-08-22T14:08:19.578Z,3.32
2022-08-22T14:11:12.435Z,3.02
2022-08-22T14:13:59.286Z,3.46
2022-08-22T14:16:34.665Z,3.30
2022-08-22T14:19:09.603Z,3.20
2022-08-22T14:21:59.600Z,3.22
2022-08-22T14:24:45.847Z,3.35
2022-08-22T14:27:27.476Z,3.15
2022-08-22T14:30:01.674Z,3.38
2022-08-22T14:32:55.426Z,3.25
2022-08-22T14:35:35.307Z,3.10
2022-08-22T14:38:17.167Z,3.04
2022-08-22T14:40:47.072Z,3.05
2022-08-22T14:43:30.697Z,3.92
2022-08-22T14:46:06.358Z,4.85
2022-08-22T14:49:05.643Z,3.44
2022-08-22T14:51:33.976Z,3.27
2022-08-22T14:54:21.412Z,3.19
2022-08-22T14:56:53.050Z,3.48
2022-08-22T14:59:43.606Z,3.18
2022-08-22T15:02:24.746Z,3.24
2022-08-22T15:04:55.570Z,3.32
2022-08-22T15:07:31.030Z,3.41
2022-08-22T15:10:11.931Z,4.15
2022-08-22T15:13:02.709Z,3.88
2022-08-22T15:15:52.958Z,3.27
2022-08-22T15:18:29.062Z,3.15
2022-08-22T15:21:24.407Z,3.15
2022-08-22T15:23:59.659Z,3.28
2022-08-22T15:26:36.364Z,3.19
2022-08-22T15:29:32.839Z,3.09
2022-08-22T15:32:04.076Z,3.44
2022-08-22T15:34:46.070Z,3.06
2022-08-22T15:37:20.765Z,3.05
2022-08-22T15:40:11.828Z,3.32
2022-08-22T15:42:54.080Z,6.77
2022-08-22T15:45:33.735Z,3.27
2022-08-22T15:48:07.132Z,2.90
2022-08-22T15:50:55.271Z,3.13
2022-08-22T15:53:29.416Z,3.01
2022-08-22T15:56:06.857Z,3.00
2022-08-22T15:58:48.680Z,3.00
2022-08-22T16:01:27.431Z,4.45
2022-08-22T16:04:07.854Z,4.63
2022-08-22T16:07:01.406Z,3.44
2022-08-22T16:09:43.526Z,3.08
2022-08-22T16:12:39.568Z,3.18
2022-08-22T16:15:56.328Z,3.22
2022-08-22T16:18:39.942Z,3.15
2022-08-22T16:21:36.561Z,2.72
2022-08-22T16:24:04.254Z,2.70
2022-08-22T16:26:31.744Z,2.98
2022-08-22T16:29:18.299Z,3.17
2022-08-22T16:31:49.105Z,3.11
2022-08-22T16:34:17.425Z,3.15
2022-08-22T16:37:11.710Z,5.10
2022-08-22T16:40:05.217Z,4.09
2022-08-22T16:42:43.587Z,3.10
2022-08-22T16:45:36.820Z,3.04
2022-08-22T16:48:24.457Z,3.45
2022-08-22T16:51:05.402Z,3.38
2022-08-22T16:53:38.977Z,3.02
2022-08-22T16:56:37.915Z,2.98
2022-08-22T16:59:23.528Z,3.03
2022-08-22T17:02:21.948Z,3.26
2022-08-22T17:05:02.673Z,3.31
2022-08-22T17:08:03.512Z,2.99
2022-08-22T17:11:06.149Z,2.88
2022-08-22T17:14:08.857Z,2.90
2022-08-22T17:17:04.663Z,3.04
2022-08-22T17:19:44.790Z,3.12
2022-08-22T17:22:32.479Z,3.57
2022-08-22T17:25:29.426Z,3.37
2022-08-22T17:28:23.812Z,3.29
2022-08-22T17:31:03.433Z,6.78
2022-08-22T17:34:08.563Z,6.45
2022-08-22T17:36:49.304Z,4.81
2022-08-22T17:39:43.091Z,3.73
2022-08-22T17:42:35.861Z,3.38
2022-08-22T17:45:19.251Z,3.96
2022-08-22T17:47:58.967Z,3.46
2022-08-22T17:50:46.845Z,3.23
2022-08-22T17:53:52.627Z,3.45
2022-08-22T17:56:41.368Z,3.90
2022-08-22T17:59:27.624Z,3.94
2022-08-22T18:02:27.049Z,4.08
2022-08-22T18:05:03.932Z,3.75
2022-08-22T18:07:53.818Z,3.60
2022-08-22T18:10:43.748Z,3.41
2022-08-22T18:13:20.844Z,3.28
2022-08-22T18:16:00.335Z,3.33
2022-08-22T18:18:33.489Z,3.43
2022-08-22T18:21:04.624Z,3.70
2022-08-22T18:24:18.417Z,4.84
2022-08-22T18:27:04.774Z,4.60
2022-08-22T18:29:49.862Z,4.15
2022-08-22T18:32:56.061Z,4.07
2022-08-22T18:35:31.316Z,4.02
2022-08-22T18:38:10.589Z,4.29
2022-08-22T18:40:56.731Z,4.57
2022-08-22T18:43:40.004Z,4.32
2022-08-22T18:46:51.973Z,4.47
2022-08-22T18:49:20.638Z,4.21
2022-08-22T18:52:07.431Z,4.04
2022-08-22T18:55:02.769Z,4.48
2022-08-22T18:58:05.952Z,4.65
2022-08-22T19:00:57.909Z,4.17
2022-08-22T19:03:38.795Z,4.24
2022-08-22T19:06:58.528Z,4.12
2022-08-22T19:09:35.459Z,3.97
2022-08-22T19:12:27.137Z,3.86
2022-08-22T19:15:07.921Z,4.31
2022-08-22T19:17:58.697Z,4.24
2022-08-22T19:20:51.519Z,4.13
2022-08-22T19:23:32.943Z,4.11
2022-08-22T19:26:26.086Z,4.25
2022-08-22T19:29:26.159Z,3.80
2022-08-22T19:32:02.970Z,4.01
2022-08-22T19:34:46.906Z,4.12
2022-08-22T19:37:31.011Z,4.07
2022-08-22T19:40:13.606Z,4.02
2022-08-22T19:42:46.885Z,3.99
2022-08-22T19:45:29.053Z,4.16
2022-08-22T19:48:13.669Z,4.40
2022-08-22T19:50:45.815Z,4.12
2022-08-22T19:53:36.792Z,4.51
2022-08-22T19:56:48.230Z,4.27
2022-08-22T19:59:40.020Z,4.02
2022-08-22T20:02:40.529Z,4.21
2022-08-22T20:05:32.000Z,4.29
2022-08-22T20:08:37.652Z,4.41
2022-08-22T20:11:28.960Z,4.20
2022-08-22T20:14:30.336Z,4.19
2022-08-22T20:17:26.854Z,4.34
2022-08-22T20:23:05.648Z,4.75
2022-08-22T20:25:51.090Z,4.54
2022-08-22T20:28:37.137Z,5.02
2022-08-22T20:31:14.576Z,4.92
2022-08-22T20:33:46.582Z,4.61
2022-08-22T20:36:27.559Z,4.72
2022-08-22T20:39:08.925Z,4.50
2022-08-22T20:41:47.296Z,4.78
2022-08-22T20:44:24.348Z,4.82
2022-08-22T20:46:55.204Z,4.87
2022-08-22T20:49:34.458Z,5.06
2022-08-22T20:52:10.959Z,5.15
2022-08-22T20:54:43.867Z,4.92
2022-08-22T20:57:19.326Z,4.86
2022-08-22T20:59:57.941Z,4.62
2022-08-22T21:02:35.621Z,4.82
2022-08-22T21:05:32.409Z,5.09
2022-08-22T21:08:07.263Z,4.73
2022-08-22T21:10:57.199Z,4.50
2022-08-22T21:13:36.371Z,4.91
2022-08-22T21:16:32.142Z,4.68
2022-08-22T21:19:04.034Z,4.82
2022-08-22T21:21:35.129Z,4.57
2022-08-22T21:24:06.762Z,4.74
2022-08-22T21:26:39.007Z,4.45
2022-08-22T21:29:08.851Z,4.52
2022-08-22T21:32:04.692Z,4.49
2022-08-22T21:34:42.719Z,4.66
2022-08-22T21:37:17.016Z,4.59
2022-08-22T21:39:51.859Z,4.25
2022-08-22T21:42:38.008Z,4.59
2022-08-22T21:45:07.747Z,4.13
2022-08-22T21:47:45.661Z,4.53
2022-08-22T21:50:31.775Z,4.66
2022-08-22T21:53:09.159Z,4.87
2022-08-22T21:55:43.653Z,4.62
2022-08-22T21:58:34.904Z,4.54
2022-08-22T22:01:29.170Z,4.60
2022-08-22T22:04:01.722Z,4.37
2022-08-22T22:06:30.724Z,5.03
2022-08-22T22:08:58.844Z,4.63
2022-08-22T22:11:26.585Z,4.24
2022-08-22T22:13:54.427Z,4.51
2022-08-22T22:16:30.312Z,4.57
2022-08-22T22:18:58.455Z,4.44
2022-08-22T22:21:26.216Z,4.97
2022-08-22T22:23:54.493Z,4.51
2022-08-22T22:26:26.690Z,4.52
2022-08-22T22:28:54.354Z,4.67
2022-08-22T22:31:21.999Z,4.86
2022-08-22T22:33:49.553Z,4.64
2022-08-22T22:36:23.357Z,4.80
2022-08-22T22:38:52.126Z,4.95
2022-08-22T22:41:25.366Z,4.66
2022-08-22T22:43:55.005Z,4.92
2022-08-22T22:46:23.717Z,5.08
2022-08-22T22:48:51.436Z,5.41
2022-08-22T22:51:19.173Z,5.26
2022-08-22T22:53:46.993Z,5.13
2022-08-22T22:56:21.685Z,5.44
2022-08-22T22:58:58.950Z,5.16
2022-08-22T23:01:29.542Z,5.32
2022-08-22T23:03:59.579Z,5.06
2022-08-22T23:06:33.773Z,5.17
2022-08-22T23:09:04.905Z,5.80
2022-08-22T23:11:32.783Z,5.51
2022-08-22T23:14:02.828Z,5.58
2022-08-22T23:16:36.987Z,5.78
2022-08-22T23:19:09.706Z,5.60
2022-08-22T23:21:37.274Z,6.46
2022-08-22T23:24:05.707Z,6.15
2022-08-22T23:26:33.793Z,6.17
2022-08-22T23:29:05.849Z,6.37
2022-08-22T23:31:35.678Z,6.43
2022-08-22T23:34:12.782Z,6.38
2022-08-22T23:36:45.917Z,6.30
2022-08-22T23:39:16.572Z,6.07
2022-08-22T23:41:46.461Z,5.90
2022-08-22T23:44:16.123Z,6.00
2022-08-22T23:46:44.453Z,6.23
2022-08-22T23:49:14.539Z,6.22
2022-08-22T23:51:44.073Z,6.19
2022-08-22T23:54:14.516Z,6.08
2022-08-22T23:56:47.262Z,6.11
2022-08-22T23:59:18.945Z,6.60
